Time;durP1;ratioP1;P1;durP2;ratioP2;P2;SDS_P1;SDS_P2;PMS_P1;PMS_P2;Temp;Humidity;BMP_temperature;BMP_pressure;BME280_temperature;BME280_humidity;BME280_pressure;Samples;Min_cycle;Max_cycle;Signal;HPM_P1;HPM_P2
2022/10/04 00:02:14;;;;;;;7.28;2.13;;;;;;;;;;4998160;28;20914;-81
2022/10/04 00:05:06;;;;;;;4.93;1.27;;;;;;;;;;5024978;28;20038;-81
2022/10/04 00:07:40;;;;;;;5.75;1.42;;;;;;;;;;4995450;28;20382;-81
2022/10/04 00:10:20;;;;;;;5.68;1.40;;;;;;;;;;5003882;28;20046;-81
2022/10/04 00:12:48;;;;;;;4.72;1.42;;;;;;;;;;5017593;28;20099;-81
2022/10/04 00:15:20;;;;;;;;;;;;;;;;;;5008062;28;20444;-81
2022/10/04 00:18:00;;;;;;;6.55;1.70;;;;;;;;;;5015905;28;20044;-82
2022/10/04 00:20:49;;;;;;;4.50;1.45;;;;;;;;;;5013014;28;20117;-81
2022/10/04 00:23:27;;;;;;;4.72;1.50;;;;;;;;;;5014809;28;20061;-81
2022/10/04 00:25:55;;;;;;;7.60;1.65;;;;;;;;;;5017335;28;20041;-81
2022/10/04 00:28:20;;;;;;;6.57;1.50;;;;;;;;;;5019130;28;20500;-81
2022/10/04 00:31:07;;;;;;;5.43;1.70;;;;;;;;;;5023466;28;20077;-81
2022/10/04 00:33:56;;;;;;;6.13;1.83;;;;;;;;;;5016604;28;20033;-81
2022/10/04 00:36:24;;;;;;;5.47;1.60;;;;;;;;;;5015178;28;20072;-81
2022/10/04 00:39:08;;;;;;;4.90;1.50;;;;;;;;;;5013090;28;20369;-82
2022/10/04 00:41:45;;;;;;;5.90;1.60;;;;;;;;;;5014334;28;20037;-81
2022/10/04 00:44:20;;;;;;;5.05;1.70;;;;;;;;;;5023259;28;20046;-81
2022/10/04 00:46:47;;;;;;;4.78;1.80;;;;;;;;;;5015039;28;20048;-81
2022/10/04 00:49:13;;;;;;;5.00;1.63;;;;;;;;;;4997759;28;20141;-81
2022/10/04 00:51:46;;;;;;;5.55;1.50;;;;;;;;;;5014872;28;20477;-81
2022/10/04 00:54:17;;;;;;;6.70;1.50;;;;;;;;;;5007833;28;20080;-81
2022/10/04 00:56:51;;;;;;;5.30;2.05;;;;;;;;;;5007249;28;20044;-80
2022/10/04 00:59:34;;;;;;;5.70;1.90;;;;;;;;;;4999913;28;20037;-81
2022/10/04 01:02:12;;;;;;;5.32;1.70;;;;;;;;;;5016277;28;20038;-81
2022/10/04 01:07:14;;;;;;;4.43;1.48;;;;;;;;;;4999318;23;20885;-79
2022/10/04 01:09:47;;;;;;;9.07;2.03;;;;;;;;;;4996276;28;20496;-79
2022/10/04 01:12:28;;;;;;;4.57;1.50;;;;;;;;;;4979406;28;20042;-79
2022/10/04 01:15:17;;;;;;;4.35;1.42;;;;;;;;;;4988150;28;20457;-77
2022/10/04 01:18:12;;;;;;;5.45;1.52;;;;;;;;;;4989987;28;20547;-79
2022/10/04 01:20:40;;;;;;;5.65;1.63;;;;;;;;;;5003653;28;20536;-79
2022/10/04 01:23:08;;;;;;;6.47;1.80;;;;;;;;;;5004864;28;20038;-79
2022/10/04 01:25:49;;;;;;;5.63;1.55;;;;;;;;;;4976187;28;20645;-79
2022/10/04 01:28:14;;;;;;;3.95;1.40;;;;;;;;;;4972261;28;20057;-80
2022/10/04 01:30:40;;;;;;;5.15;1.60;;;;;;;;;;5003843;28;20030;-79
2022/10/04 01:33:06;;;;;;;4.38;1.60;;;;;;;;;;4991089;28;20117;-79
2022/10/04 01:35:35;;;;;;;4.43;1.50;;;;;;;;;;5006238;28;20128;-79
2022/10/04 01:38:05;;;;;;;5.38;1.50;;;;;;;;;;4989360;28;20488;-79
2022/10/04 01:40:30;;;;;;;5.72;1.38;;;;;;;;;;4989202;28;20037;-79
2022/10/04 01:43:09;;;;;;;6.93;1.70;;;;;;;;;;4989874;28;20041;-80
2022/10/04 01:45:40;;;;;;;5.40;1.33;;;;;;;;;;4985101;28;20056;-79
2022/10/04 01:48:11;;;;;;;5.60;1.48;;;;;;;;;;4970908;28;20038;-79
2022/10/04 01:50:44;;;;;;;7.88;1.65;;;;;;;;;;4984384;28;20121;-80
2022/10/04 01:53:17;;;;;;;4.30;1.60;;;;;;;;;;4980607;28;20054;-81
2022/10/04 01:55:47;;;;;;;5.43;1.70;;;;;;;;;;4985341;28;20029;-80
2022/10/04 01:58:18;;;;;;;5.18;1.40;;;;;;;;;;4985797;28;20421;-81
2022/10/04 02:01:14;;;;;;;3.58;1.40;;;;;;;;;;4985745;28;20350;-80
2022/10/04 02:03:55;;;;;;;6.07;1.88;;;;;;;;;;4975198;28;20098;-81
2022/10/04 02:06:21;;;;;;;6.13;1.75;;;;;;;;;;4986989;28;20062;-80
2022/10/04 02:08:48;;;;;;;5.43;1.83;;;;;;;;;;4960229;28;20077;-81
2022/10/04 02:11:19;;;;;;;6.15;2.17;;;;;;;;;;4975263;28;20408;-81
2022/10/04 02:13:47;;;;;;;5.75;1.77;;;;;;;;;;4977914;28;20038;-80
2022/10/04 02:16:12;;;;;;;6.32;1.80;;;;;;;;;;4961017;28;20385;-81
2022/10/04 02:18:39;;;;;;;6.85;1.92;;;;;;;;;;4958976;28;20038;-81
2022/10/04 02:21:06;;;;;;;6.45;1.90;;;;;;;;;;4973274;28;20608;-80
2022/10/04 02:23:32;;;;;;;3.28;1.40;;;;;;;;;;4970320;28;20036;-81
2022/10/04 02:25:57;;;;;;;5.13;1.52;;;;;;;;;;4971941;28;20044;-80
2022/10/04 02:28:24;;;;;;;7.72;1.75;;;;;;;;;;4979809;28;20056;-81
2022/10/04 02:33:40;;;;;;;7.00;1.60;;;;;;;;;;4996608;28;20053;-80
2022/10/04 02:36:07;;;;;;;4.82;1.38;;;;;;;;;;4985062;28;20034;-81
2022/10/04 02:38:34;;;;;;;5.13;1.30;;;;;;;;;;4970274;28;20476;-80
2022/10/04 02:41:13;;;;;;;6.38;1.75;;;;;;;;;;4982675;28;20050;-79
2022/10/04 02:43:45;;;;;;;4.90;1.33;;;;;;;;;;4958761;28;20146;-80
2022/10/04 02:46:22;;;;;;;5.88;1.80;;;;;;;;;;4952834;28;20145;-80
2022/10/04 02:48:54;;;;;;;5.20;1.20;;;;;;;;;;4953035;28;20533;-80
2022/10/04 02:51:27;;;;;;;5.50;1.95;;;;;;;;;;4947319;28;20278;-80
2022/10/04 02:53:56;;;;;;;7.60;1.52;;;;;;;;;;4950376;28;20494;-80
2022/10/04 02:56:24;;;;;;;3.92;1.33;;;;;;;;;;4959473;28;20089;-80
2022/10/04 02:58:49;;;;;;;5.65;1.45;;;;;;;;;;4951074;28;21558;-80
2022/10/04 03:01:24;;;;;;;11.00;2.22;;;;;;;;;;4952125;28;20470;-80
2022/10/04 03:03:50;;;;;;;4.43;1.55;;;;;;;;;;4947235;28;20504;-81
2022/10/04 03:06:18;;;;;;;5.28;1.40;;;;;;;;;;4947948;28;20050;-80
2022/10/04 03:08:44;;;;;;;5.88;1.20;;;;;;;;;;4963653;28;20313;-80
2022/10/04 03:11:10;;;;;;;8.30;1.65;;;;;;;;;;4958310;28;20122;-80
2022/10/04 03:13:40;;;;;;;4.38;1.58;;;;;;;;;;4974715;28;20041;-80
2022/10/04 03:16:07;;;;;;;7.05;1.67;;;;;;;;;;4975228;28;20085;-80
2022/10/04 03:18:34;;;;;;;3.58;1.23;;;;;;;;;;4966311;28;20038;-80
2022/10/04 03:21:05;;;;;;;5.37;1.37;;;;;;;;;;4987760;28;20388;-80
2022/10/04 03:23:32;;;;;;;4.72;1.42;;;;;;;;;;4954848;28;20122;-81
2022/10/04 03:25:59;;;;;;;5.73;1.37;;;;;;;;;;4956215;28;20570;-80
2022/10/04 03:28:26;;;;;;;5.20;1.85;;;;;;;;;;4943090;28;20043;-81
2022/10/04 03:30:52;;;;;;;6.65;1.35;;;;;;;;;;4951066;28;20514;-91
2022/10/04 03:33:22;;;;;;;5.15;1.85;;;;;;;;;;4978563;28;20175;-91
2022/10/04 03:35:59;;;;;;;4.47;1.20;;;;;;;;;;4949886;28;20502;-92
2022/10/04 03:38:28;;;;;;;5.30;1.48;;;;;;;;;;4959364;28;20034;-92
2022/10/04 03:40:57;;;;;;;6.63;1.25;;;;;;;;;;4975778;28;20135;-90
2022/10/04 03:43:27;;;;;;;4.45;1.33;;;;;;;;;;4986932;28;20153;-92
2022/10/04 03:45:52;;;;;;;5.13;1.50;;;;;;;;;;4969028;28;20030;-91
2022/10/04 03:48:26;;;;;;;4.88;1.27;;;;;;;;;;4963021;28;20466;-91
2022/10/04 03:50:52;;;;;;;6.60;1.23;;;;;;;;;;4969242;28;20575;-91
2022/10/04 03:53:28;;;;;;;2.97;1.13;;;;;;;;;;4972355;28;20105;-90
2022/10/04 03:55:54;;;;;;;8.68;1.70;;;;;;;;;;4974489;28;20438;-90
2022/10/04 03:58:21;;;;;;;6.43;1.63;;;;;;;;;;4977754;28;20038;-90
2022/10/04 04:01:01;;;;;;;5.03;1.25;;;;;;;;;;4961439;28;20030;-88
2022/10/04 04:03:28;;;;;;;6.07;1.75;;;;;;;;;;4981832;28;20043;-84
2022/10/04 04:05:58;;;;;;;3.40;1.10;;;;;;;;;;4967954;28;20134;-84
2022/10/04 04:08:31;;;;;;;4.28;1.45;;;;;;;;;;4981140;28;20057;-84
2022/10/04 04:11:00;;;;;;;5.35;1.40;;;;;;;;;;4955742;28;20034;-82
2022/10/04 04:13:38;;;;;;;4.55;1.33;;;;;;;;;;4958228;28;20567;-83
2022/10/04 04:16:04;;;;;;;4.35;1.20;;;;;;;;;;4985570;28;20516;-84
2022/10/04 04:18:32;;;;;;;5.53;1.30;;;;;;;;;;4962037;28;20041;-83
2022/10/04 04:21:00;;;;;;;3.25;0.90;;;;;;;;;;4968059;28;20078;-83
2022/10/04 04:23:27;;;;;;;6.65;1.40;;;;;;;;;;4964777;28;20112;-81
2022/10/04 04:25:59;;;;;;;4.53;1.15;;;;;;;;;;4983482;28;20051;-85
2022/10/04 04:28:26;;;;;;;5.53;1.63;;;;;;;;;;4968015;28;20054;-85
2022/10/04 04:31:03;;;;;;;3.65;1.05;;;;;;;;;;4965480;28;20576;-84
2022/10/04 04:33:42;;;;;;;6.47;1.07;;;;;;;;;;4973077;28;20054;-83
2022/10/04 04:36:12;;;;;;;4.75;1.38;;;;;;;;;;4959313;28;20370;-83
2022/10/04 04:41:24;;;;;;;3.38;0.90;;;;;;;;;;4958681;28;20442;-84
2022/10/04 04:43:49;;;;;;;;;;;;;;;;;;4944320;28;20051;-83
2022/10/04 04:46:14;;;;;;;3.78;1.50;;;;;;;;;;4956425;28;20381;-84
2022/10/04 04:48:43;;;;;;;4.38;1.20;;;;;;;;;;4948134;28;20055;-84
2022/10/04 04:51:21;;;;;;;6.40;1.13;;;;;;;;;;4949700;28;20077;-83
2022/10/04 04:53:47;;;;;;;4.63;1.30;;;;;;;;;;4972071;28;20484;-84
2022/10/04 04:56:18;;;;;;;4.80;1.20;;;;;;;;;;4967149;28;20061;-83
2022/10/04 04:58:45;;;;;;;7.20;1.30;;;;;;;;;;4986021;28;20396;-85
2022/10/04 05:01:25;;;;;;;3.67;1.42;;;;;;;;;;4951645;28;20050;-85
2022/10/04 05:04:17;;;;;;;3.67;1.02;;;;;;;;;;4943598;28;20045;-84
2022/10/04 05:06:50;;;;;;;5.47;1.50;;;;;;;;;;4950316;28;20054;-84
2022/10/04 05:09:31;;;;;;;5.43;1.73;;;;;;;;;;4947108;28;20042;-82
2022/10/04 05:12:09;;;;;;;3.78;0.90;;;;;;;;;;4963511;28;20079;-82
2022/10/04 05:14:37;;;;;;;;;;;;;;;;;;4975830;28;20066;-83
2022/10/04 05:17:02;;;;;;;4.82;1.30;;;;;;;;;;4981994;28;20299;-83
2022/10/04 05:19:30;;;;;;;6.72;1.58;;;;;;;;;;4976953;28;20126;-81
2022/10/04 05:21:58;;;;;;;5.70;1.60;;;;;;;;;;4969671;28;20034;-81
2022/10/04 05:24:46;;;;;;;6.35;1.45;;;;;;;;;;4963036;28;20031;-80
2022/10/04 05:27:17;;;;;;;3.80;1.10;;;;;;;;;;4977484;28;20121;-81
2022/10/04 05:29:57;;;;;;;8.48;1.60;;;;;;;;;;4967509;28;20043;-81
2022/10/04 05:33:00;;;;;;;6.30;1.13;;;;;;;;;;4953144;28;21270;-81
2022/10/04 05:35:37;;;;;;;4.80;1.50;;;;;;;;;;4975432;28;20038;-81
2022/10/04 05:38:23;;;;;;;3.00;1.13;;;;;;;;;;4954099;28;20389;-81
2022/10/04 05:40:48;;;;;;;3.67;1.20;;;;;;;;;;4960094;28;20618;-81
2022/10/04 05:43:48;;;;;;;4.40;1.23;;;;;;;;;;4954235;28;20044;-82
2022/10/04 05:46:24;;;;;;;4.95;1.40;;;;;;;;;;4968674;28;20096;-82
2022/10/04 05:49:13;;;;;;;4.13;1.40;;;;;;;;;;4972781;28;20500;-81
2022/10/04 05:52:15;;;;;;;4.30;1.30;;;;;;;;;;4958137;28;20169;-82
2022/10/04 05:54:41;;;;;;;5.35;1.65;;;;;;;;;;4962097;28;20046;-81
2022/10/04 05:57:26;;;;;;;4.63;1.40;;;;;;;;;;4970078;28;20035;-82
2022/10/04 06:00:08;;;;;;;4.10;1.40;;;;;;;;;;4977807;28;20117;-82
2022/10/04 06:02:42;;;;;;;4.35;1.42;;;;;;;;;;4983778;28;20057;-82
2022/10/04 06:05:14;;;;;;;4.85;1.60;;;;;;;;;;4972323;28;20038;-82
2022/10/04 06:07:59;;;;;;;4.57;1.20;;;;;;;;;;4972694;28;20031;-82
2022/10/04 06:10:44;;;;;;;4.32;1.40;;;;;;;;;;4982506;28;20050;-79
2022/10/04 06:13:37;;;;;;;3.75;1.20;;;;;;;;;;4969527;28;20127;-81
2022/10/04 06:16:33;;;;;;;6.80;1.40;;;;;;;;;;4955760;28;20043;-82
2022/10/04 06:19:16;;;;;;;7.07;1.45;;;;;;;;;;4965747;28;20097;-83
2022/10/04 06:22:16;;;;;;;4.75;1.10;;;;;;;;;;4962830;28;20046;-82
2022/10/04 06:25:06;;;;;;;5.60;1.70;;;;;;;;;;4959495;28;20520;-80
2022/10/04 06:27:52;;;;;;;5.60;1.35;;;;;;;;;;4962039;28;20038;-81
2022/10/04 06:30:19;;;;;;;3.35;1.13;;;;;;;;;;4968491;28;20121;-81
2022/10/04 06:33:06;;;;;;;5.00;1.48;;;;;;;;;;4969012;28;20049;-81
2022/10/04 06:35:57;;;;;;;5.63;2.17;;;;;;;;;;4993520;28;20524;-81
2022/10/04 06:38:30;;;;;;;4.28;1.42;;;;;;;;;;4976302;28;20469;-81
2022/10/04 06:41:01;;;;;;;6.93;1.92;;;;;;;;;;4973694;28;20449;-81
2022/10/04 06:43:56;;;;;;;6.30;1.70;;;;;;;;;;4989258;28;20075;-81
2022/10/04 06:46:30;;;;;;;8.30;2.10;;;;;;;;;;4932280;28;20039;-81
2022/10/04 06:49:18;;;;;;;4.35;1.77;;;;;;;;;;4917369;29;20127;-81
2022/10/04 06:52:20;;;;;;;5.43;1.95;;;;;;;;;;4898399;29;20047;-81
2022/10/04 06:55:23;;;;;;;5.10;1.60;;;;;;;;;;4937473;28;20475;-81
2022/10/04 06:58:15;;;;;;;5.82;1.50;;;;;;;;;;4911273;29;20040;-81
2022/10/04 07:00:53;;;;;;;4.05;1.60;;;;;;;;;;4923684;29;20040;-81
2022/10/04 07:03:25;;;;;;;4.65;1.42;;;;;;;;;;4902268;29;20502;-81
2022/10/04 07:06:00;;;;;;;5.72;1.60;;;;;;;;;;4926876;29;20050;-81
2022/10/04 07:08:46;;;;;;;3.88;1.45;;;;;;;;;;4919763;29;20086;-81
2022/10/04 07:11:21;;;;;;;5.68;1.55;;;;;;;;;;4930431;29;20047;-81
2022/10/04 07:14:01;;;;;;;6.82;1.38;;;;;;;;;;4932736;29;20470;-81
2022/10/04 07:16:42;;;;;;;4.60;1.70;;;;;;;;;;4921112;29;20470;-81
2022/10/04 07:19:19;;;;;;;7.47;1.80;;;;;;;;;;4910755;29;20044;-81
2022/10/04 07:21:48;;;;;;;6.45;1.95;;;;;;;;;;4933045;29;20438;-81
2022/10/04 07:24:23;;;;;;;6.03;1.92;;;;;;;;;;4968259;28;20046;-81
2022/10/04 07:26:51;;;;;;;4.38;1.67;;;;;;;;;;4976060;28;20031;-81
2022/10/04 07:29:24;;;;;;;5.75;2.30;;;;;;;;;;4985426;28;20560;-81
2022/10/04 07:32:13;;;;;;;5.57;2.03;;;;;;;;;;4965334;28;20031;-81
2022/10/04 07:35:04;;;;;;;5.97;1.95;;;;;;;;;;4949750;28;20046;-81
2022/10/04 07:37:36;;;;;;;5.38;2.10;;;;;;;;;;4971527;28;20053;-81
2022/10/04 07:40:07;;;;;;;4.25;1.80;;;;;;;;;;4971303;28;20038;-81
2022/10/04 07:43:03;;;;;;;4.07;1.75;;;;;;;;;;4964232;28;20057;-81
2022/10/04 07:45:33;;;;;;;7.60;2.05;;;;;;;;;;4961546;28;20029;-81
2022/10/04 07:48:22;;;;;;;6.93;2.40;;;;;;;;;;4982010;28;20513;-81
2022/10/04 07:51:17;;;;;;;6.78;1.98;;;;;;;;;;4961052;28;20041;-81
2022/10/04 07:54:14;;;;;;;9.25;2.47;;;;;;;;;;4966109;28;20070;-81
2022/10/04 07:56:46;;;;;;;;;;;;;;;;;;4979620;28;20038;-81
2022/10/04 07:59:31;;;;;;;6.28;2.53;;;;;;;;;;4960952;28;20389;-81
2022/10/04 08:02:21;;;;;;;5.45;2.72;;;;;;;;;;4957095;28;20047;-80
2022/10/04 08:05:28;;;;;;;5.95;2.40;;;;;;;;;;4964796;28;20042;-81
2022/10/04 08:08:31;;;;;;;6.13;2.83;;;;;;;;;;4976467;28;20042;-81
2022/10/04 08:11:04;;;;;;;5.85;2.45;;;;;;;;;;4928383;28;20047;-81
2022/10/04 08:13:37;;;;;;;4.65;2.50;;;;;;;;;;4954906;28;20694;-80
2022/10/04 08:16:14;;;;;;;6.53;2.83;;;;;;;;;;4977898;28;20035;-80
2022/10/04 08:19:13;;;;;;;7.55;2.83;;;;;;;;;;4973812;28;20039;-80
2022/10/04 08:21:57;;;;;;;6.63;2.38;;;;;;;;;;4977517;28;20031;-80
2022/10/04 08:24:31;;;;;;;5.50;2.40;;;;;;;;;;4974096;28;20355;-80
2022/10/04 08:27:21;;;;;;;5.10;2.33;;;;;;;;;;4942315;28;20095;-80
2022/10/04 08:30:12;;;;;;;4.35;2.00;;;;;;;;;;4973515;28;20050;-80
2022/10/04 08:33:05;;;;;;;5.30;2.22;;;;;;;;;;4974147;28;20031;-82
2022/10/04 08:35:52;;;;;;;5.45;2.00;;;;;;;;;;4960625;28;20038;-81
2022/10/04 08:38:41;;;;;;;4.90;2.20;;;;;;;;;;4959003;28;20034;-81
2022/10/04 08:41:07;;;;;;;3.55;1.80;;;;;;;;;;4961336;28;20626;-81
2022/10/04 08:44:00;;;;;;;6.78;1.70;;;;;;;;;;4975926;28;20030;-81
2022/10/04 08:46:39;;;;;;;3.83;1.40;;;;;;;;;;4976331;28;20034;-80
2022/10/04 08:49:20;;;;;;;3.33;1.55;;;;;;;;;;4974663;28;20493;-81
2022/10/04 08:52:12;;;;;;;4.05;1.77;;;;;;;;;;4974871;28;20112;-81
2022/10/04 08:54:56;;;;;;;4.15;1.48;;;;;;;;;;4975959;28;20161;-81
2022/10/04 08:57:48;;;;;;;3.40;1.40;;;;;;;;;;4974029;28;20038;-81
2022/10/04 09:00:15;;;;;;;2.65;1.15;;;;;;;;;;4976893;28;20094;-81
2022/10/04 09:02:56;;;;;;;3.08;1.45;;;;;;;;;;4974937;28;20035;-82
2022/10/04 09:05:40;;;;;;;5.05;1.27;;;;;;;;;;4976842;28;20098;-81
2022/10/04 09:08:23;;;;;;;4.70;1.75;;;;;;;;;;4974277;28;20069;-82
2022/10/04 09:11:04;;;;;;;5.40;1.60;;;;;;;;;;4954257;28;20027;-81
2022/10/04 09:13:46;;;;;;;4.35;1.33;;;;;;;;;;4970705;28;20034;-81
2022/10/04 09:16:17;;;;;;;2.80;1.00;;;;;;;;;;4962518;28;20063;-81
2022/10/04 09:18:48;;;;;;;3.42;1.40;;;;;;;;;;4966473;28;20061;-81
2022/10/04 09:21:35;;;;;;;5.50;1.25;;;;;;;;;;4976380;28;20060;-81
2022/10/04 09:24:20;;;;;;;3.80;1.30;;;;;;;;;;4956961;28;20133;-81
2022/10/04 09:26:59;;;;;;;4.10;1.25;;;;;;;;;;4954300;28;20046;-81
2022/10/04 09:29:45;;;;;;;11.38;2.03;;;;;;;;;;4960902;28;20478;-81
2022/10/04 09:32:29;;;;;;;5.32;1.20;;;;;;;;;;4958085;28;20904;-82
2022/10/04 09:35:05;;;;;;;5.13;1.25;;;;;;;;;;4977002;28;20031;-81
2022/10/04 09:37:37;;;;;;;3.67;1.05;;;;;;;;;;4973928;28;20080;-81
2022/10/04 09:40:37;;;;;;;4.07;1.45;;;;;;;;;;4966854;28;20035;-81
2022/10/04 09:43:33;;;;;;;5.60;1.40;;;;;;;;;;4973958;28;20049;-81
2022/10/04 09:46:17;;;;;;;5.15;1.98;;;;;;;;;;4989647;28;20045;-81
2022/10/04 09:49:18;;;;;;;3.58;1.42;;;;;;;;;;4971930;28;20073;-81
2022/10/04 09:52:07;;;;;;;2.72;1.10;;;;;;;;;;4958693;28;20068;-81
2022/10/04 09:54:55;;;;;;;4.68;1.38;;;;;;;;;;4957318;28;20031;-81
2022/10/04 09:57:32;;;;;;;4.35;1.25;;;;;;;;;;4952005;28;20039;-81
2022/10/04 10:00:01;;;;;;;4.30;1.40;;;;;;;;;;4956108;28;20535;-81
2022/10/04 10:02:45;;;;;;;3.45;1.15;;;;;;;;;;4953805;28;20054;-81
2022/10/04 10:05:44;;;;;;;4.97;1.60;;;;;;;;;;4962210;28;20455;-80
2022/10/04 10:08:21;;;;;;;2.97;1.15;;;;;;;;;;4972183;28;20049;-81
2022/10/04 10:13:52;;;;;;;3.95;1.35;;;;;;;;;;4974578;28;20424;-81
2022/10/04 10:16:58;;;;;;;3.53;1.38;;;;;;;;;;4974757;28;20129;-81
2022/10/04 10:19:52;;;;;;;3.88;1.38;;;;;;;;;;4934030;28;20038;-80
2022/10/04 10:22:26;;;;;;;2.90;1.20;;;;;;;;;;4971252;28;20050;-80
2022/10/04 10:25:02;;;;;;;3.08;1.48;;;;;;;;;;4975070;28;20054;-81
2022/10/04 10:28:01;;;;;;;5.40;1.38;;;;;;;;;;4945369;28;20039;-81
2022/10/04 10:30:44;;;;;;;3.65;1.30;;;;;;;;;;4955981;28;20043;-81
2022/10/04 10:33:19;;;;;;;4.78;1.30;;;;;;;;;;4968807;28;20077;-81
2022/10/04 10:36:12;;;;;;;2.65;1.10;;;;;;;;;;4971917;28;20042;-81
2022/10/04 10:38:39;;;;;;;3.30;1.00;;;;;;;;;;4951921;28;20478;-81
2022/10/04 10:41:42;;;;;;;2.85;1.05;;;;;;;;;;4972217;28;20038;-81
2022/10/04 10:44:22;;;;;;;4.15;1.00;;;;;;;;;;4972112;28;20502;-81
2022/10/04 10:47:11;;;;;;;3.47;0.95;;;;;;;;;;4946240;28;20027;-81
2022/10/04 10:49:45;;;;;;;5.32;1.20;;;;;;;;;;4976569;28;20050;-82
2022/10/04 10:52:38;;;;;;;4.68;1.05;;;;;;;;;;4976562;28;20183;-81
2022/10/04 10:55:25;;;;;;;5.20;0.90;;;;;;;;;;4992495;28;20058;-81
2022/10/04 10:58:19;;;;;;;3.92;0.90;;;;;;;;;;4976344;28;20497;-80
2022/10/04 11:00:53;;;;;;;4.25;1.80;;;;;;;;;;4978476;28;20027;-82
2022/10/04 11:03:42;;;;;;;3.33;0.98;;;;;;;;;;4994548;28;20046;-81
2022/10/04 11:06:34;;;;;;;2.78;1.00;;;;;;;;;;4951775;28;20140;-82
2022/10/04 11:09:21;;;;;;;7.38;1.23;;;;;;;;;;4994024;28;20046;-81
2022/10/04 11:12:08;;;;;;;4.13;1.33;;;;;;;;;;4975886;28;20041;-80
2022/10/04 11:14:39;;;;;;;4.25;1.70;;;;;;;;;;4980541;28;20508;-81
2022/10/04 11:17:08;;;;;;;4.10;1.13;;;;;;;;;;4974047;28;20047;-81
2022/10/04 11:19:49;;;;;;;4.38;1.20;;;;;;;;;;4975085;28;20042;-81
2022/10/04 11:22:44;;;;;;;3.15;0.90;;;;;;;;;;4992224;28;20039;-82
2022/10/04 11:25:34;;;;;;;4.40;1.20;;;;;;;;;;4976200;28;20065;-81
2022/10/04 11:28:12;;;;;;;2.83;0.90;;;;;;;;;;4965092;28;20053;-81
2022/10/04 11:30:53;;;;;;;3.53;1.00;;;;;;;;;;4979078;28;20031;-80
2022/10/04 11:33:24;;;;;;;4.57;1.20;;;;;;;;;;4976135;28;20092;-81
2022/10/04 11:36:30;;;;;;;5.80;1.27;;;;;;;;;;4977432;28;20378;-81
2022/10/04 11:39:18;;;;;;;4.65;0.95;;;;;;;;;;4993038;28;20042;-81
2022/10/04 11:42:00;;;;;;;4.30;0.98;;;;;;;;;;4977845;28;20505;-80
2022/10/04 11:44:31;;;;;;;4.00;0.82;;;;;;;;;;4963023;28;20454;-81
2022/10/04 11:47:24;;;;;;;2.90;0.90;;;;;;;;;;4961763;28;20047;-82
2022/10/04 11:50:21;;;;;;;2.47;0.73;;;;;;;;;;4957049;28;20080;-81
2022/10/04 11:53:02;;;;;;;;;;;;;;;;;;4956197;28;20037;-81
2022/10/04 11:55:36;;;;;;;3.45;0.85;;;;;;;;;;4973716;28;19952;-81
2022/10/04 11:58:16;;;;;;;2.70;0.80;;;;;;;;;;4977176;28;20097;-81
2022/10/04 12:01:15;;;;;;;2.45;0.70;;;;;;;;;;4968709;28;20127;-81
2022/10/04 12:04:17;;;;;;;3.88;0.77;;;;;;;;;;4984479;28;20027;-81
2022/10/04 12:06:49;;;;;;;7.18;1.10;;;;;;;;;;4954236;28;20055;-81
2022/10/04 12:09:33;;;;;;;2.75;0.70;;;;;;;;;;4955932;28;20577;-82
2022/10/04 12:15:19;;;;;;;4.15;0.88;;;;;;;;;;4973646;28;20033;-81
2022/10/04 12:18:12;;;;;;;3.85;0.80;;;;;;;;;;4992746;28;20039;-81
2022/10/04 12:21:08;;;;;;;4.22;1.23;;;;;;;;;;4973840;28;20038;-81
2022/10/04 12:24:03;;;;;;;5.00;1.25;;;;;;;;;;4968595;28;20031;-81
2022/10/04 12:26:58;;;;;;;4.75;1.00;;;;;;;;;;4963647;28;20042;-82
2022/10/04 12:29:57;;;;;;;3.60;1.00;;;;;;;;;;4962236;28;20177;-80
2022/10/04 12:33:01;;;;;;;3.67;1.00;;;;;;;;;;4981783;28;20038;-80
2022/10/04 12:35:32;;;;;;;2.00;0.80;;;;;;;;;;4989616;28;20126;-81
2022/10/04 12:38:23;;;;;;;3.60;0.70;;;;;;;;;;4976223;28;20073;-82
2022/10/04 12:40:52;;;;;;;3.08;0.70;;;;;;;;;;4966569;28;20045;-83
2022/10/04 12:43:43;;;;;;;4.25;1.13;;;;;;;;;;4976425;28;20544;-82
2022/10/04 12:46:48;;;;;;;3.95;0.90;;;;;;;;;;4984314;28;20121;-82
2022/10/04 12:49:25;;;;;;;3.60;0.75;;;;;;;;;;4952167;28;20067;-82
2022/10/04 12:51:57;;;;;;;3.50;0.80;;;;;;;;;;4972893;28;20121;-82
2022/10/04 12:54:32;;;;;;;2.72;0.60;;;;;;;;;;4959801;28;20441;-82
2022/10/04 12:57:19;;;;;;;2.35;0.68;;;;;;;;;;4974055;28;20113;-84
2022/10/04 13:00:11;;;;;;;4.13;0.85;;;;;;;;;;4956596;28;20105;-82
2022/10/04 13:03:01;;;;;;;3.08;0.77;;;;;;;;;;4970735;28;20552;-83
2022/10/04 13:05:45;;;;;;;2.60;0.80;;;;;;;;;;4948089;28;20501;-81
2022/10/04 13:08:29;;;;;;;2.60;0.73;;;;;;;;;;4971554;28;20043;-82
2022/10/04 13:11:23;;;;;;;4.25;1.00;;;;;;;;;;4953843;28;20101;-83
2022/10/04 13:14:06;;;;;;;2.28;0.63;;;;;;;;;;4969481;28;20065;-82
2022/10/04 13:16:51;;;;;;;1.48;0.50;;;;;;;;;;4966091;28;20034;-83
2022/10/04 13:19:41;;;;;;;1.20;0.50;;;;;;;;;;4989519;28;20065;-82
2022/10/04 13:22:12;;;;;;;2.63;0.70;;;;;;;;;;4966505;28;20062;-82
2022/10/04 13:24:56;;;;;;;2.58;0.73;;;;;;;;;;4976317;28;20058;-82
2022/10/04 13:27:37;;;;;;;1.80;0.68;;;;;;;;;;4976511;28;20453;-81
2022/10/04 13:30:22;;;;;;;4.35;0.70;;;;;;;;;;4970455;28;20062;-82
2022/10/04 13:32:51;;;;;;;1.65;0.70;;;;;;;;;;4980519;28;20505;-82
2022/10/04 13:35:39;;;;;;;2.72;0.60;;;;;;;;;;4972991;28;20118;-81
2022/10/04 13:38:29;;;;;;;2.97;0.70;;;;;;;;;;4975249;28;20044;-82
2022/10/04 13:41:03;;;;;;;5.28;0.95;;;;;;;;;;4972250;28;20505;-81
2022/10/04 13:43:44;;;;;;;4.70;0.70;;;;;;;;;;4976005;28;20032;-82
2022/10/04 13:46:21;;;;;;;4.05;0.88;;;;;;;;;;4972608;28;20069;-82
2022/10/04 13:49:01;;;;;;;3.75;0.65;;;;;;;;;;4947174;28;20081;-83
2022/10/04 13:51:45;;;;;;;3.00;0.85;;;;;;;;;;4955813;28;20043;-82
2022/10/04 13:57:30;;;;;;;4.25;0.85;;;;;;;;;;4975337;28;20470;-82
2022/10/04 14:00:09;;;;;;;4.63;0.80;;;;;;;;;;4990346;28;20042;-82
2022/10/04 14:03:00;;;;;;;2.17;0.50;;;;;;;;;;4962324;28;20042;-83
2022/10/04 14:05:47;;;;;;;4.50;0.60;;;;;;;;;;4972260;28;20097;-82
2022/10/04 14:08:35;;;;;;;1.45;0.50;;;;;;;;;;4973764;28;20065;-82
2022/10/04 14:11:22;;;;;;;3.78;0.68;;;;;;;;;;4990002;28;20038;-82
2022/10/04 14:14:13;;;;;;;2.30;0.40;;;;;;;;;;4972777;28;20035;-83
2022/10/04 14:16:47;;;;;;;2.53;0.50;;;;;;;;;;4973515;28;20966;-82
2022/10/04 14:19:31;;;;;;;2.60;0.70;;;;;;;;;;4975001;28;20062;-82
2022/10/04 14:22:17;;;;;;;2.08;0.43;;;;;;;;;;4973836;28;20165;-82
2022/10/04 14:25:20;;;;;;;5.30;0.60;;;;;;;;;;4992045;28;20035;-81
2022/10/04 14:28:06;;;;;;;2.00;0.52;;;;;;;;;;4988385;28;20138;-82
2022/10/04 14:31:04;;;;;;;2.40;0.52;;;;;;;;;;4974403;28;20042;-82
2022/10/04 14:33:35;;;;;;;2.50;0.63;;;;;;;;;;4945834;28;20035;-82
2022/10/04 14:36:00;;;;;;;4.07;0.65;;;;;;;;;;4975529;28;20493;-84
2022/10/04 14:39:22;;;;;;;2.10;0.60;;;;;;;;;;4974119;28;20034;-82
2022/10/04 14:42:17;;;;;;;2.35;0.52;;;;;;;;;;4951888;28;20150;-82
2022/10/04 14:45:14;;;;;;;2.17;0.47;;;;;;;;;;4920496;28;20422;-81
2022/10/04 14:48:01;;;;;;;2.80;0.40;;;;;;;;;;4959563;28;20043;-83
2022/10/04 14:50:56;;;;;;;1.90;0.57;;;;;;;;;;4957893;28;20043;-82
2022/10/04 14:53:40;;;;;;;2.92;0.70;;;;;;;;;;4970032;28;20099;-82
2022/10/04 14:56:42;;;;;;;2.72;0.63;;;;;;;;;;4948608;28;20054;-82
2022/10/04 14:59:13;;;;;;;1.50;0.43;;;;;;;;;;4914896;29;20203;-82
2022/10/04 15:01:46;;;;;;;1.75;0.40;;;;;;;;;;4950201;28;20063;-81
2022/10/04 15:04:24;;;;;;;3.90;0.98;;;;;;;;;;4943273;28;20050;-82
2022/10/04 15:07:15;;;;;;;1.73;0.52;;;;;;;;;;4946087;28;20129;-81
2022/10/04 15:09:49;;;;;;;2.00;0.50;;;;;;;;;;4960277;28;20045;-82
2022/10/04 15:12:30;;;;;;;1.63;0.60;;;;;;;;;;4970742;28;20725;-82
2022/10/04 15:14:58;;;;;;;3.33;0.50;;;;;;;;;;4973989;28;20397;-83
2022/10/04 15:17:25;;;;;;;1.95;0.60;;;;;;;;;;4974275;28;20050;-83
2022/10/04 15:20:19;;;;;;;1.45;0.40;;;;;;;;;;4976988;28;20035;-82
2022/10/04 15:23:36;;;;;;;1.60;0.50;;;;;;;;;;4973404;28;20035;-83
2022/10/04 15:26:17;;;;;;;2.08;0.50;;;;;;;;;;4958753;28;20050;-83
2022/10/04 15:28:48;;;;;;;1.75;0.40;;;;;;;;;;4988130;28;20897;-82
2022/10/04 15:31:28;;;;;;;2.20;0.60;;;;;;;;;;4973446;28;20043;-81
2022/10/04 15:33:59;;;;;;;1.70;0.50;;;;;;;;;;4962629;28;20490;-83
2022/10/04 15:36:36;;;;;;;6.03;1.50;;;;;;;;;;4968824;28;20481;-81
2022/10/04 15:39:36;;;;;;;2.75;0.60;;;;;;;;;;4977028;28;20046;-82
2022/10/04 15:42:13;;;;;;;1.50;0.50;;;;;;;;;;4950952;28;20130;-81
2022/10/04 15:45:03;;;;;;;2.10;0.50;;;;;;;;;;4962881;28;20034;-82
2022/10/04 15:47:47;;;;;;;2.60;0.57;;;;;;;;;;4991029;28;20034;-82
2022/10/04 15:50:53;;;;;;;3.55;1.20;;;;;;;;;;4974479;28;20506;-81
2022/10/04 15:53:33;;;;;;;1.95;0.60;;;;;;;;;;4973206;28;20065;-83
2022/10/04 15:56:05;;;;;;;4.05;0.80;;;;;;;;;;4991221;28;20046;-81
2022/10/04 15:58:43;;;;;;;1.85;0.60;;;;;;;;;;4955269;28;20123;-82
2022/10/04 16:01:19;;;;;;;1.55;0.55;;;;;;;;;;4973039;28;20121;-83
2022/10/04 16:04:26;;;;;;;2.25;0.68;;;;;;;;;;4943452;28;20043;-83
2022/10/04 16:06:55;;;;;;;1.58;0.60;;;;;;;;;;4973004;28;20386;-83
2022/10/04 16:09:27;;;;;;;1.95;0.60;;;;;;;;;;4968207;28;20520;-83
2022/10/04 16:12:20;;;;;;;2.10;0.60;;;;;;;;;;4976233;28;20035;-82
2022/10/04 16:15:04;;;;;;;2.00;0.70;;;;;;;;;;4990864;28;20494;-82
2022/10/04 16:17:42;;;;;;;3.75;1.05;;;;;;;;;;4976350;28;20049;-83
2022/10/04 16:20:08;;;;;;;2.05;0.80;;;;;;;;;;4959048;28;20436;-81